Time;durP1;ratioP1;P1;durP2;ratioP2;P2;SDS_P1;SDS_P2;PMS_P1;PMS_P2;Temp;Humidity;BMP_temperature;BMP_pressure;BME280_temperature;BME280_humidity;BME280_pressure;Samples;Min_cycle;Max_cycle;Signal;HPM_P1;HPM_P2
2022/03/28 00:01:44;;;;;;;43.58;26.10;;;6.70;99.90;;;;;;5013626;28;20056;-67
2022/03/28 00:04:09;;;;;;;45.53;25.40;;;6.80;99.90;;;;;;5015364;28;20495;-67
2022/03/28 00:06:35;;;;;;;49.28;25.40;;;6.80;99.90;;;;;;5030765;28;20045;-67
2022/03/28 00:09:00;;;;;;;50.53;27.13;;;6.80;99.90;;;;;;5014322;28;20148;-67
2022/03/28 00:11:27;;;;;;;50.65;28.27;;;6.80;99.90;;;;;;4999014;28;20053;-67
2022/03/28 00:13:52;;;;;;;53.38;28.20;;;6.80;99.90;;;;;;4998635;28;20081;-67
2022/03/28 00:16:18;;;;;;;42.50;24.88;;;6.70;99.90;;;;;;4999260;28;20183;-67
2022/03/28 00:18:44;;;;;;;45.33;23.05;;;6.70;99.90;;;;;;5015414;28;20606;-67
2022/03/28 00:21:09;;;;;;;46.50;26.33;;;6.70;99.90;;;;;;5015989;28;20045;-67
2022/03/28 00:23:35;;;;;;;41.13;25.40;;;6.70;99.90;;;;;;4998898;28;20073;-67
2022/03/28 00:26:00;;;;;;;43.67;24.23;;;6.70;99.90;;;;;;5015912;28;20897;-67
2022/03/28 00:28:26;;;;;;;59.03;27.25;;;6.70;99.90;;;;;;4999508;28;20487;-66
2022/03/28 00:30:52;;;;;;;52.70;28.70;;;6.70;99.90;;;;;;5016718;28;20425;-65
2022/03/28 00:33:17;;;;;;;47.00;25.70;;;6.70;99.90;;;;;;4998888;28;20538;-65
2022/03/28 00:35:43;;;;;;;60.90;31.35;;;6.70;99.90;;;;;;5024338;28;20103;-65
2022/03/28 00:38:09;;;;;;;49.47;25.25;;;6.80;99.90;;;;;;5036123;28;20052;-65
2022/03/28 00:40:35;;;;;;;46.55;25.50;;;6.80;99.90;;;;;;5017778;28;20288;-65
2022/03/28 00:43:03;;;;;;;43.53;24.48;;;6.90;99.90;;;;;;5036709;28;20571;-65
2022/03/28 00:45:31;;;;;;;39.63;21.73;;;6.90;99.90;;;;;;5018835;28;20049;-65
2022/03/28 00:47:57;;;;;;;41.33;21.70;;;6.90;99.90;;;;;;5001424;28;20050;-67
2022/03/28 00:50:23;;;;;;;49.10;24.92;;;6.90;99.90;;;;;;4996626;28;20144;-67
2022/03/28 00:52:50;;;;;;;44.10;24.95;;;7.00;99.90;;;;;;5015191;28;20044;-67
2022/03/28 00:55:17;;;;;;;29.17;16.33;;;6.90;99.90;;;;;;5029179;28;20099;-67
2022/03/28 00:57:42;;;;;;;33.05;18.88;;;6.90;99.90;;;;;;5036257;28;20055;-67
2022/03/28 01:00:09;;;;;;;21.33;13.65;;;6.80;99.90;;;;;;5035724;28;20044;-67
2022/03/28 01:02:36;;;;;;;25.17;16.30;;;6.80;99.90;;;;;;5036263;28;20072;-67
2022/03/28 01:05:01;;;;;;;28.85;15.15;;;6.80;99.90;;;;;;5018470;28;20817;-67
2022/03/28 01:07:27;;;;;;;34.20;18.73;;;6.90;99.90;;;;;;5017154;28;20056;-67
2022/03/28 01:09:58;;;;;;;27.50;19.30;;;6.90;99.90;;;;;;5036258;28;20065;-67
2022/03/28 01:12:26;;;;;;;25.60;15.80;;;7.00;99.90;;;;;;5017994;28;20054;-67
2022/03/28 01:14:54;;;;;;;32.63;20.25;;;7.00;99.90;;;;;;4978201;28;20500;-67
2022/03/28 01:20:04;;;;;;;21.85;14.27;;;7.00;99.90;;;;;;4997454;28;20164;-67
2022/03/28 01:22:30;;;;;;;29.35;16.38;;;7.00;99.90;;;;;;4998384;28;20060;-67
2022/03/28 01:25:02;;;;;;;26.48;13.48;;;7.00;99.90;;;;;;4998851;28;20057;-67
2022/03/28 01:27:28;;;;;;;25.27;15.63;;;7.00;99.90;;;;;;4998380;28;20056;-67
2022/03/28 01:29:54;;;;;;;21.65;14.27;;;6.90;99.90;;;;;;5033509;28;20057;-67
2022/03/28 01:32:19;;;;;;;23.80;14.90;;;6.90;99.90;;;;;;5007261;28;20050;-67
2022/03/28 01:34:45;;;;;;;25.75;14.38;;;6.80;99.90;;;;;;4996194;28;20687;-67
2022/03/28 01:37:11;;;;;;;25.42;16.15;;;6.80;99.90;;;;;;4995583;28;20556;-67
2022/03/28 01:39:37;;;;;;;28.80;17.27;;;6.80;99.90;;;;;;4995967;28;20610;-67
2022/03/28 01:42:03;;;;;;;24.50;15.35;;;6.80;99.90;;;;;;4995465;28;20498;-67
2022/03/28 01:44:28;;;;;;;20.05;14.38;;;6.80;99.90;;;;;;5022916;28;20048;-67
2022/03/28 01:46:54;;;;;;;26.05;17.20;;;6.80;99.90;;;;;;5036047;28;20049;-67
2022/03/28 01:49:20;;;;;;;22.75;14.43;;;6.60;99.90;;;;;;5035235;28;20126;-67
2022/03/28 01:51:47;;;;;;;16.73;11.50;;;6.60;99.90;;;;;;5035684;28;20045;-67
2022/03/28 01:54:13;;;;;;;17.10;12.60;;;6.60;99.90;;;;;;5023784;28;20049;-67
2022/03/28 01:56:39;;;;;;;21.58;14.55;;;6.60;99.90;;;;;;4996878;28;20083;-67
2022/03/28 01:59:06;;;;;;;16.48;12.52;;;6.60;99.90;;;;;;4997316;28;20052;-67
2022/03/28 02:01:33;;;;;;;18.58;12.65;;;6.60;99.90;;;;;;5016292;28;20049;-67
2022/03/28 02:03:58;;;;;;;15.35;11.85;;;6.50;99.90;;;;;;5002737;28;20056;-68
2022/03/28 02:06:25;;;;;;;19.25;12.27;;;6.60;99.90;;;;;;4996108;28;20053;-67
2022/03/28 02:08:50;;;;;;;20.13;13.23;;;6.60;99.90;;;;;;4995910;28;20086;-67
2022/03/28 02:11:16;;;;;;;18.23;13.00;;;6.60;99.90;;;;;;5000794;28;20060;-67
2022/03/28 02:13:42;;;;;;;16.95;10.73;;;6.60;99.90;;;;;;4977538;28;20455;-67
2022/03/28 02:16:08;;;;;;;17.05;13.25;;;6.60;99.90;;;;;;4985368;28;20141;-67
2022/03/28 02:18:34;;;;;;;19.48;12.95;;;6.60;99.90;;;;;;5014149;28;20091;-67
2022/03/28 02:20:59;;;;;;;21.85;12.63;;;6.70;99.90;;;;;;5015171;28;20844;-67
2022/03/28 02:23:26;;;;;;;18.02;12.18;;;6.70;99.90;;;;;;5015698;28;20052;-67
2022/03/28 02:25:51;;;;;;;20.95;14.00;;;6.80;99.90;;;;;;5015731;28;20041;-67
2022/03/28 02:28:17;;;;;;;22.20;14.05;;;6.90;99.90;;;;;;4998129;28;20111;-66
2022/03/28 02:30:42;;;;;;;30.25;15.00;;;6.90;99.90;;;;;;4997856;28;20107;-67
2022/03/28 02:33:09;;;;;;;24.73;15.65;;;6.80;99.90;;;;;;5015612;28;20049;-67
2022/03/28 02:35:35;;;;;;;19.63;12.65;;;6.80;99.90;;;;;;5015875;28;20889;-67
2022/03/28 02:38:01;;;;;;;27.50;17.02;;;6.80;99.90;;;;;;5015703;28;20140;-67
2022/03/28 02:40:31;;;;;;;24.65;15.43;;;6.80;99.90;;;;;;5014143;28;20120;-67
2022/03/28 02:42:58;;;;;;;26.05;15.05;;;6.80;99.90;;;;;;5016003;28;20606;-67
2022/03/28 02:45:24;;;;;;;21.90;15.32;;;6.70;99.90;;;;;;5009391;28;20952;-67
2022/03/28 02:47:50;;;;;;;25.23;16.27;;;6.70;99.90;;;;;;4996045;28;20131;-67
2022/03/28 02:50:15;;;;;;;25.67;16.00;;;6.70;99.90;;;;;;4996058;28;20046;-67
2022/03/28 02:52:41;;;;;;;22.27;14.07;;;6.70;99.90;;;;;;4995350;28;20092;-66
2022/03/28 02:55:07;;;;;;;22.48;15.20;;;6.80;99.90;;;;;;4995904;28;20046;-67
2022/03/28 02:57:33;;;;;;;24.38;14.90;;;6.70;99.90;;;;;;5002539;28;20081;-67
2022/03/28 02:59:59;;;;;;;29.55;18.73;;;6.80;99.90;;;;;;5014347;28;20081;-67
2022/03/28 03:02:24;;;;;;;25.58;16.35;;;6.80;99.90;;;;;;4993865;28;20054;-67
2022/03/28 03:04:50;;;;;;;22.50;14.75;;;6.80;99.90;;;;;;4977482;28;20050;-67
2022/03/28 03:07:15;;;;;;;22.73;12.32;;;6.80;99.90;;;;;;4994839;28;20042;-67
2022/03/28 03:09:41;;;;;;;26.02;14.40;;;6.80;99.90;;;;;;4995065;28;20092;-67
2022/03/28 03:12:07;;;;;;;21.73;13.73;;;6.70;99.90;;;;;;4978340;28;20062;-67
2022/03/28 03:14:33;;;;;;;20.75;12.90;;;6.60;99.90;;;;;;4995115;28;20042;-67
2022/03/28 03:16:58;;;;;;;19.85;11.98;;;6.60;99.90;;;;;;4994947;28;20707;-67
2022/03/28 03:19:24;;;;;;;15.25;10.63;;;6.50;99.90;;;;;;4979668;28;20069;-67
2022/03/28 03:21:50;;;;;;;18.77;9.93;;;6.50;99.90;;;;;;5014226;28;20055;-67
2022/03/28 03:24:15;;;;;;;16.25;10.50;;;6.60;99.90;;;;;;5015575;28;20084;-67
2022/03/28 03:26:42;;;;;;;16.55;10.23;;;6.60;99.90;;;;;;4996931;28;20171;-67
2022/03/28 03:29:08;;;;;;;16.00;11.88;;;6.50;99.90;;;;;;5014479;28;20088;-67
2022/03/28 03:31:34;;;;;;;18.63;10.80;;;6.50;99.90;;;;;;5018698;28;20085;-67
2022/03/28 03:33:59;;;;;;;19.52;11.95;;;6.40;99.90;;;;;;5000073;28;20239;-67
2022/03/28 03:36:25;;;;;;;17.45;11.68;;;6.50;99.90;;;;;;5018104;28;20156;-67
2022/03/28 03:38:51;;;;;;;16.13;10.65;;;6.40;99.90;;;;;;5018997;28;20176;-67
2022/03/28 03:41:16;;;;;;;16.02;10.15;;;6.40;99.90;;;;;;5019229;28;20049;-67
2022/03/28 03:43:44;;;;;;;23.10;12.23;;;6.40;99.90;;;;;;5025314;28;20814;-67
2022/03/28 03:46:10;;;;;;;21.13;13.57;;;6.40;99.90;;;;;;5038317;28;20862;-67
2022/03/28 03:48:36;;;;;;;24.10;15.18;;;6.50;99.90;;;;;;5008139;28;20765;-67
2022/03/28 03:51:02;;;;;;;19.80;13.15;;;6.40;99.90;;;;;;4998659;28;20092;-67
2022/03/28 03:53:28;;;;;;;21.15;12.65;;;6.30;99.90;;;;;;4998434;28;20054;-67
2022/03/28 03:55:53;;;;;;;21.98;11.52;;;6.40;99.90;;;;;;4998191;28;20088;-67
2022/03/28 03:58:19;;;;;;;16.38;11.20;;;6.30;99.90;;;;;;4980946;28;20066;-67
2022/03/28 04:00:44;;;;;;;40.25;12.95;;;6.30;99.90;;;;;;4998628;28;20046;-67
2022/03/28 04:03:10;;;;;;;20.50;13.10;;;6.30;99.90;;;;;;4998945;28;20831;-67
2022/03/28 04:05:37;;;;;;;19.23;11.82;;;6.30;99.90;;;;;;4981424;28;20839;-67
2022/03/28 04:08:05;;;;;;;22.48;11.60;;;6.20;99.90;;;;;;4997440;28;20814;-67
2022/03/28 04:10:32;;;;;;;20.65;11.05;;;6.20;99.90;;;;;;4980294;28;20045;-67
2022/03/28 04:12:57;;;;;;;18.55;11.77;;;6.10;99.90;;;;;;4981006;28;20054;-67
2022/03/28 04:15:23;;;;;;;21.05;9.82;;;6.10;99.90;;;;;;4998704;28;20050;-67
2022/03/28 04:17:49;;;;;;;38.80;12.90;;;6.10;99.90;;;;;;4997099;28;20046;-67
2022/03/28 04:20:16;;;;;;;16.20;9.40;;;6.10;99.90;;;;;;4982310;28;20054;-67
2022/03/28 04:22:43;;;;;;;17.33;9.57;;;6.10;99.90;;;;;;5017650;28;20046;-67
2022/03/28 04:25:10;;;;;;;17.85;10.35;;;6.10;99.90;;;;;;5017517;28;20145;-67
2022/03/28 04:27:36;;;;;;;15.48;7.55;;;6.10;99.90;;;;;;5018236;28;20085;-67
2022/03/28 04:30:05;;;;;;;11.50;7.00;;;5.90;99.90;;;;;;5017340;28;20042;-67
2022/03/28 04:32:30;;;;;;;11.65;6.93;;;5.90;99.90;;;;;;5017501;28;20049;-67
2022/03/28 04:34:56;;;;;;;11.48;5.70;;;5.90;99.90;;;;;;4999464;28;20857;-67
2022/03/28 04:37:21;;;;;;;10.32;5.00;;;5.80;99.90;;;;;;5016581;28;20140;-67
2022/03/28 04:39:47;;;;;;;5.28;3.40;;;5.70;99.90;;;;;;5016537;28;20057;-67
2022/03/28 04:42:12;;;;;;;6.07;3.17;;;5.70;99.90;;;;;;4999030;28;20049;-67
2022/03/28 04:44:38;;;;;;;6.90;4.97;;;5.70;99.90;;;;;;5031486;28;20161;-67
2022/03/28 04:47:04;;;;;;;9.85;5.93;;;5.70;99.90;;;;;;5036665;28;20095;-67
2022/03/28 04:49:29;;;;;;;9.95;5.00;;;5.60;99.90;;;;;;5010761;28;20069;-67
2022/03/28 04:51:55;;;;;;;5.53;3.28;;;5.70;99.90;;;;;;4996913;28;20045;-67
2022/03/28 04:54:20;;;;;;;4.68;3.35;;;5.70;99.90;;;;;;4997388;28;20045;-67
2022/03/28 04:56:46;;;;;;;5.13;3.28;;;5.70;99.90;;;;;;4996595;28;20505;-67
2022/03/28 04:59:11;;;;;;;6.82;3.42;;;5.70;99.90;;;;;;4996182;28;20038;-67
2022/03/28 05:01:37;;;;;;;4.65;3.60;;;5.70;99.90;;;;;;4997067;28;20053;-67
2022/03/28 05:04:02;;;;;;;5.03;3.17;;;5.70;99.90;;;;;;4997829;28;20820;-67
2022/03/28 05:06:28;;;;;;;5.55;3.10;;;5.80;99.90;;;;;;4996619;28;20061;-67
2022/03/28 05:08:54;;;;;;;3.70;2.75;;;5.80;99.90;;;;;;4978837;28;20054;-67
2022/03/28 05:11:22;;;;;;;3.50;2.83;;;5.80;99.90;;;;;;4996427;28;20057;-67
2022/03/28 05:13:51;;;;;;;3.63;2.30;;;5.80;99.90;;;;;;4996197;28;20863;-67
2022/03/28 05:16:17;;;;;;;4.00;2.47;;;5.80;99.90;;;;;;4978918;28;20054;-67
2022/03/28 05:18:43;;;;;;;3.00;2.38;;;5.70;99.90;;;;;;4996694;28;20723;-67
2022/03/28 05:21:08;;;;;;;4.93;3.10;;;5.80;99.90;;;;;;5011389;28;20041;-67
2022/03/28 05:23:34;;;;;;;2.75;2.47;;;5.80;99.90;;;;;;5016468;28;20603;-67
2022/03/28 05:26:00;;;;;;;5.05;2.80;;;5.80;99.90;;;;;;4998064;28;20220;-67
2022/03/28 05:28:25;;;;;;;6.18;3.83;;;5.80;99.90;;;;;;4997979;28;20049;-67
2022/03/28 05:30:52;;;;;;;7.18;4.18;;;5.80;99.90;;;;;;4997983;28;20073;-67
2022/03/28 05:33:18;;;;;;;5.78;3.50;;;5.80;99.90;;;;;;4998519;28;20053;-66
2022/03/28 05:35:44;;;;;;;6.93;4.05;;;5.90;99.90;;;;;;5015440;28;20128;-67
2022/03/28 05:38:10;;;;;;;7.07;3.88;;;5.90;99.90;;;;;;4998788;28;20130;-66
2022/03/28 05:40:36;;;;;;;8.55;4.40;;;5.90;99.90;;;;;;4998705;28;20161;-67
2022/03/28 05:43:03;;;;;;;11.32;6.20;;;5.80;99.90;;;;;;5016761;28;20053;-66
2022/03/28 05:45:28;;;;;;;15.35;6.25;;;5.80;99.90;;;;;;5035808;28;20126;-67
2022/03/28 05:47:54;;;;;;;9.93;6.18;;;5.70;99.90;;;;;;5035295;28;20052;-67
2022/03/28 05:50:19;;;;;;;10.20;5.05;;;5.70;99.90;;;;;;4994953;28;20045;-67
2022/03/28 05:52:45;;;;;;;12.18;7.65;;;5.80;99.90;;;;;;4995899;28;20049;-67
2022/03/28 05:55:11;;;;;;;16.77;8.38;;;5.70;99.90;;;;;;4977764;28;20042;-67
2022/03/28 05:57:37;;;;;;;15.43;8.80;;;5.80;99.90;;;;;;4996412;28;20050;-67
2022/03/28 06:00:05;;;;;;;17.33;10.07;;;5.80;99.90;;;;;;4995177;28;20065;-67
2022/03/28 06:02:31;;;;;;;30.30;13.07;;;5.80;99.90;;;;;;4996151;28;20045;-67
2022/03/28 06:04:57;;;;;;;21.85;11.55;;;5.80;99.90;;;;;;4995774;28;20042;-67
2022/03/28 06:07:22;;;;;;;24.65;11.35;;;5.80;99.90;;;;;;4995883;28;20056;-67
2022/03/28 06:09:48;;;;;;;34.30;17.25;;;5.80;99.90;;;;;;4995602;28;20489;-67
2022/03/28 06:12:15;;;;;;;36.10;18.85;;;5.80;99.90;;;;;;4996117;28;20061;-67
2022/03/28 06:14:40;;;;;;;33.38;16.45;;;5.80;99.90;;;;;;4995216;28;20084;-67
2022/03/28 06:17:06;;;;;;;31.52;15.80;;;5.90;99.90;;;;;;4994782;28;20120;-67
2022/03/28 06:19:32;;;;;;;24.75;15.18;;;5.90;99.90;;;;;;4980238;28;20128;-67
2022/03/28 06:21:57;;;;;;;29.63;17.08;;;5.90;99.90;;;;;;5015326;28;20087;-66
2022/03/28 06:24:23;;;;;;;27.63;16.70;;;5.90;99.90;;;;;;4997196;28;20045;-67
2022/03/28 06:26:49;;;;;;;26.33;14.43;;;5.90;99.90;;;;;;4997592;28;20057;-67
2022/03/28 06:29:15;;;;;;;25.02;13.95;;;5.90;99.90;;;;;;5015520;28;20045;-66
2022/03/28 06:31:41;;;;;;;26.23;13.57;;;5.90;99.90;;;;;;4996583;28;20054;-67
2022/03/28 06:34:07;;;;;;;21.02;13.05;;;5.90;99.90;;;;;;5014710;28;20049;-67
2022/03/28 06:36:33;;;;;;;25.00;12.73;;;5.90;99.90;;;;;;4997176;28;20054;-67
2022/03/28 06:39:00;;;;;;;21.58;13.38;;;6.00;99.90;;;;;;5014860;28;20060;-67
2022/03/28 06:41:26;;;;;;;20.48;11.35;;;6.00;99.90;;;;;;5015498;28;20107;-67
2022/03/28 06:43:52;;;;;;;19.50;11.73;;;6.00;99.90;;;;;;5023061;28;20056;-67
2022/03/28 06:46:17;;;;;;;18.83;10.75;;;6.00;99.90;;;;;;5034094;28;20046;-67
2022/03/28 06:48:43;;;;;;;17.73;10.85;;;6.00;99.90;;;;;;5002868;28;20049;-67
2022/03/28 06:51:09;;;;;;;14.48;9.75;;;6.00;99.90;;;;;;4978657;28;20054;-67
2022/03/28 06:53:34;;;;;;;19.45;10.43;;;6.10;99.90;;;;;;4977793;28;20049;-67
2022/03/28 06:56:01;;;;;;;12.30;8.43;;;6.10;99.90;;;;;;4977619;28;20056;-67
2022/03/28 06:58:27;;;;;;;14.07;8.43;;;6.10;99.90;;;;;;4976422;28;20060;-67
2022/03/28 07:00:53;;;;;;;14.52;9.85;;;6.10;99.90;;;;;;4993601;28;20904;-67
2022/03/28 07:03:19;;;;;;;13.07;8.07;;;6.20;99.90;;;;;;4993852;28;20049;-67
2022/03/28 07:05:45;;;;;;;15.55;10.20;;;6.20;99.90;;;;;;4657498;28;10000147;-67
2022/03/28 07:08:12;;;;;;;12.98;7.43;;;6.10;99.90;;;;;;4996667;28;20045;-67
2022/03/28 07:10:37;;;;;;;11.68;8.15;;;6.30;99.90;;;;;;5014496;28;20059;-67
2022/03/28 07:13:04;;;;;;;12.98;6.57;;;6.20;99.90;;;;;;5009055;28;20037;-67
2022/03/28 07:15:35;;;;;;;10.84;7.20;;;6.20;99.90;;;;;;4848404;28;10000619;-67
2022/03/28 07:18:06;;;;;;;9.65;6.88;;;6.30;99.90;;;;;;5010448;28;20250;-67
2022/03/28 07:20:32;;;;;;;7.57;5.88;;;6.40;99.90;;;;;;4994999;28;20053;-67
2022/03/28 07:22:58;;;;;;;10.13;6.88;;;6.40;99.90;;;;;;5014888;28;20052;-67
2022/03/28 07:25:25;;;;;;;10.05;6.45;;;6.40;99.90;;;;;;5015591;28;20052;-67
2022/03/28 07:27:52;;;;;;;9.00;6.35;;;6.40;99.90;;;;;;5013508;28;20052;-66
2022/03/28 07:30:18;;;;;;;10.70;6.75;;;6.50;99.90;;;;;;5014597;28;20912;-67
2022/03/28 07:32:44;;;;;;;16.17;7.55;;;6.40;99.90;;;;;;5015210;28;20049;-66
2022/03/28 07:35:12;;;;;;;9.25;6.30;;;6.50;99.90;;;;;;5002568;28;20053;-67
2022/03/28 07:37:41;;;;;;;10.40;7.18;;;6.50;99.90;;;;;;5015326;28;20046;-66
2022/03/28 07:40:09;;;;;;;13.93;8.15;;;6.50;99.90;;;;;;4994376;28;20959;-67
2022/03/28 07:42:35;;;;;;;15.55;9.25;;;6.50;99.90;;;;;;5012657;28;20441;-66
2022/03/28 07:45:02;;;;;;;14.35;9.05;;;6.50;99.90;;;;;;5016549;28;20045;-66
2022/03/28 07:47:28;;;;;;;13.45;9.70;;;6.60;99.90;;;;;;5015081;28;20041;-66
2022/03/28 07:49:55;;;;;;;16.10;8.38;;;6.50;99.90;;;;;;5014096;28;20491;-66
2022/03/28 07:52:21;;;;;;;16.60;9.85;;;6.60;99.90;;;;;;5014282;28;20099;-66
2022/03/28 07:54:48;;;;;;;10.68;7.53;;;6.60;99.90;;;;;;4996800;28;20175;-66
2022/03/28 07:57:15;;;;;;;10.55;7.45;;;6.60;99.90;;;;;;4996936;28;20821;-67
2022/03/28 07:59:48;;;;;;;14.27;8.50;;;6.70;99.90;;;;;;4997018;28;20116;-67
2022/03/28 08:02:14;;;;;;;;;;;6.70;99.90;;;;;;5014697;28;20037;-67
2022/03/28 08:04:43;;;;;;;19.95;11.18;;;6.70;99.90;;;;;;5014025;28;19925;-67
2022/03/28 08:07:08;;;;;;;14.13;8.15;;;6.80;99.90;;;;;;5014066;28;20560;-67
2022/03/28 08:09:35;;;;;;;16.73;9.13;;;6.80;99.90;;;;;;4995770;28;20603;-66
2022/03/28 08:12:02;;;;;;;17.17;10.43;;;6.80;99.90;;;;;;5013666;28;20124;-67
2022/03/28 08:14:28;;;;;;;13.68;9.15;;;6.90;99.90;;;;;;4996491;28;20103;-66
2022/03/28 08:16:55;;;;;;;16.20;9.20;;;6.90;99.90;;;;;;5011817;28;20152;-66
2022/03/28 08:19:21;;;;;;;11.26;7.76;;;6.90;99.90;;;;;;4652542;28;10000665;-67
2022/03/28 08:21:46;;;;;;;13.55;8.07;;;6.80;99.90;;;;;;5014634;28;20041;-65
2022/03/28 08:24:12;;;;;;;10.43;6.45;;;6.70;99.90;;;;;;4995134;28;20045;-65
2022/03/28 08:26:37;;;;;;;10.88;6.03;;;6.70;99.90;;;;;;5020146;28;20771;-66
2022/03/28 08:29:04;;;;;;;6.00;5.35;;;6.70;99.90;;;;;;5015727;28;20752;-66
2022/03/28 08:31:30;;;;;;;8.35;5.07;;;6.70;99.90;;;;;;5033559;28;20051;-66
2022/03/28 08:33:55;;;;;;;7.97;5.03;;;6.80;99.90;;;;;;5016680;28;20045;-66
2022/03/28 08:36:22;;;;;;;6.32;4.05;;;6.90;99.90;;;;;;5016174;28;20857;-66
2022/03/28 08:38:47;;;;;;;7.88;4.35;;;7.00;99.90;;;;;;5027375;28;20049;-66
2022/03/28 08:41:16;;;;;;;12.15;7.30;;;7.10;99.90;;;;;;5017553;28;20052;-66
2022/03/28 08:43:42;;;;;;;10.80;7.25;;;7.20;99.90;;;;;;5005465;28;20102;-66
2022/03/28 08:46:09;;;;;;;9.43;5.93;;;7.10;99.90;;;;;;5036492;28;20049;-66
2022/03/28 08:48:40;;;;;;;8.90;6.30;;;7.00;99.90;;;;;;5008374;28;20568;-65
2022/03/28 08:51:09;;;;;;;10.00;6.28;;;7.00;99.90;;;;;;4997286;28;20084;-66
2022/03/28 08:53:36;;;;;;;10.60;7.28;;;7.10;99.90;;;;;;4980542;28;20145;-66
2022/03/28 08:56:02;;;;;;;9.88;6.47;;;7.20;99.90;;;;;;4996511;28;20061;-66
2022/03/28 08:58:27;;;;;;;10.15;6.70;;;7.40;99.90;;;;;;4979673;28;20060;-66
2022/03/28 09:00:53;;;;;;;16.27;8.48;;;7.10;99.90;;;;;;4997729;28;20050;-66
2022/03/28 09:03:19;;;;;;;11.07;6.47;;;7.10;99.90;;;;;;4996937;28;20065;-66
2022/03/28 09:05:49;;;;;;;11.02;7.13;;;7.10;99.90;;;;;;4996551;28;20060;-66
2022/03/28 09:08:15;;;;;;;10.63;7.60;;;7.20;99.90;;;;;;4997098;28;20064;-66
2022/03/28 09:10:47;;;;;;;13.10;7.90;;;7.20;99.90;;;;;;4996389;28;20054;-66
2022/03/28 09:13:19;;;;;;;10.07;7.15;;;7.30;99.90;;;;;;4996676;28;20163;-66
2022/03/28 09:15:57;;;;;;;10.35;7.50;;;7.30;99.90;;;;;;4989048;28;20049;-65
2022/03/28 09:18:27;;;;;;;9.90;6.25;;;7.40;99.90;;;;;;4995432;28;20049;-66
2022/03/28 09:20:59;;;;;;;11.15;7.40;;;7.50;99.90;;;;;;5015716;28;20053;-66
2022/03/28 09:23:39;;;;;;;12.75;7.88;;;7.50;99.90;;;;;;5015941;28;20492;-66
2022/03/28 09:26:13;;;;;;;11.70;8.05;;;7.50;99.90;;;;;;5015692;28;20053;-65
2022/03/28 09:28:40;;;;;;;14.70;7.80;;;7.60;99.90;;;;;;5015589;28;20098;-65
2022/03/28 09:31:21;;;;;;;11.30;7.30;;;7.50;99.90;;;;;;5014809;28;20052;-65
2022/03/28 09:33:59;;;;;;;10.65;6.75;;;7.50;99.90;;;;;;5013379;28;20144;-65
2022/03/28 09:36:45;;;;;;;12.38;7.75;;;7.50;99.90;;;;;;5014646;28;20952;-65
2022/03/28 09:39:12;;;;;;;12.55;8.02;;;7.60;99.90;;;;;;5013795;28;20445;-65
2022/03/28 09:41:38;;;;;;;14.95;7.80;;;7.70;99.90;;;;;;5014318;28;20041;-65
2022/03/28 09:44:04;;;;;;;12.10;7.07;;;7.70;99.90;;;;;;5016744;28;20515;-65
2022/03/28 09:46:32;;;;;;;14.45;7.63;;;7.80;99.90;;;;;;5027244;28;20145;-64
2022/03/28 09:48:59;;;;;;;10.98;6.50;;;7.90;99.90;;;;;;5015663;28;20050;-65
2022/03/28 09:51:29;;;;;;;9.10;7.32;;;7.90;99.90;;;;;;5016135;28;20830;-64
2022/03/28 09:53:56;;;;;;;11.00;7.57;;;7.80;99.90;;;;;;4998488;28;20451;-65
2022/03/28 09:56:21;;;;;;;13.32;7.65;;;7.90;99.90;;;;;;4998297;28;20068;-65
2022/03/28 09:59:01;;;;;;;11.82;7.60;;;7.80;99.90;;;;;;5016838;28;20183;-65
2022/03/28 10:01:35;;;;;;;12.27;8.45;;;8.00;99.90;;;;;;5016101;28;20045;-65
2022/03/28 10:04:05;;;;;;;10.50;7.43;;;8.10;99.90;;;;;;4999507;28;20947;-65
2022/03/28 10:06:37;;;;;;;11.05;7.40;;;8.00;99.90;;;;;;4979465;28;20056;-65
2022/03/28 10:09:04;;;;;;;12.05;7.93;;;8.10;99.90;;;;;;4995672;28;20527;-65
2022/03/28 10:11:31;;;;;;;12.07;7.25;;;8.20;99.90;;;;;;4980231;28;20057;-65
2022/03/28 10:13:57;;;;;;;11.30;7.63;;;8.30;99.90;;;;;;4997258;28;20096;-64
2022/03/28 10:16:23;;;;;;;11.20;6.80;;;8.40;99.90;;;;;;4996235;28;20054;-65
2022/03/28 10:18:50;;;;;;;12.50;9.00;;;8.60;99.90;;;;;;4997011;28;20735;-65
2022/03/28 10:21:31;;;;;;;11.88;8.32;;;8.50;99.90;;;;;;4997069;28;20050;-65
2022/03/28 10:24:15;;;;;;;12.55;7.35;;;8.50;99.90;;;;;;4979070;28;20046;-65
2022/03/28 10:26:45;;;;;;;14.05;8.50;;;8.40;99.90;;;;;;4997024;28;20050;-65
2022/03/28 10:29:17;;;;;;;9.82;8.20;;;8.30;99.90;;;;;;4996960;28;20405;-65
2022/03/28 10:31:52;;;;;;;11.93;7.53;;;8.50;99.90;;;;;;4977936;28;20050;-65
2022/03/28 10:34:56;;;;;;;11.45;7.97;;;8.60;99.90;;;;;;4979226;28;20062;-64
2022/03/28 10:37:21;;;;;;;;;;;8.90;99.90;;;;;;4979107;28;20978;-65
2022/03/28 10:39:47;;;;;;;10.85;7.13;;;9.10;99.90;;;;;;4995627;28;19925;-65
2022/03/28 10:42:17;;;;;;;11.55;7.40;;;9.20;99.90;;;;;;4996065;28;20081;-65
2022/03/28 10:44:45;;;;;;;13.27;7.88;;;9.20;99.90;;;;;;5007769;28;20159;-65
2022/03/28 10:47:14;;;;;;;10.07;6.95;;;9.20;99.90;;;;;;5017962;28;20048;-65
2022/03/28 10:49:44;;;;;;;10.05;6.28;;;9.40;99.90;;;;;;5006615;28;20139;-65
2022/03/28 10:52:16;;;;;;;13.07;8.25;;;9.50;99.90;;;;;;4977988;28;20065;-65
2022/03/28 10:54:42;;;;;;;14.43;8.82;;;9.60;99.90;;;;;;4996002;28;20053;-65
2022/03/28 10:57:25;;;;;;;17.25;9.50;;;9.50;99.90;;;;;;4996028;28;20108;-65
2022/03/28 11:00:05;;;;;;;13.95;7.72;;;9.40;99.90;;;;;;4977448;28;20057;-65
2022/03/28 11:02:31;;;;;;;13.55;8.73;;;9.60;99.90;;;;;;4996922;28;20158;-65
2022/03/28 11:05:07;;;;;;;13.65;8.35;;;9.50;99.90;;;;;;4977459;28;20584;-65
2022/03/28 11:07:33;;;;;;;14.30;8.18;;;9.50;99.90;;;;;;4979026;28;20057;-65
2022/03/28 11:10:08;;;;;;;10.80;8.82;;;9.60;99.90;;;;;;4995934;28;20791;-65
2022/03/28 11:12:39;;;;;;;12.20;8.18;;;9.70;99.90;;;;;;4978319;28;20096;-65
2022/03/28 11:15:16;;;;;;;11.90;8.20;;;9.90;99.90;;;;;;4995574;28;20501;-65
2022/03/28 11:17:52;;;;;;;15.38;9.85;;;10.00;99.90;;;;;;4995772;28;20050;-65
2022/03/28 11:20:20;;;;;;;10.90;8.40;;;9.90;99.90;;;;;;5004252;28;20251;-65
2022/03/28 11:22:48;;;;;;;12.68;8.82;;;10.00;99.90;;;;;;5015621;28;20076;-65
2022/03/28 11:25:32;;;;;;;11.18;8.73;;;10.10;99.90;;;;;;5015462;28;20045;-65
2022/03/28 11:28:23;;;;;;;14.25;9.38;;;10.30;99.90;;;;;;5015859;28;20057;-65
2022/03/28 11:31:07;;;;;;;15.13;9.38;;;10.30;99.90;;;;;;5015365;28;20053;-65
2022/03/28 11:33:41;;;;;;;14.10;8.93;;;10.40;99.90;;;;;;4996993;28;20061;-65
2022/03/28 11:36:12;;;;;;;12.98;8.48;;;10.40;99.90;;;;;;5015042;28;20055;-65
2022/03/28 11:38:40;;;;;;;15.10;9.82;;;10.40;99.90;;;;;;5015217;28;20519;-64
2022/03/28 11:41:08;;;;;;;15.32;9.27;;;10.40;99.90;;;;;;5014922;28;20064;-65
2022/03/28 11:43:39;;;;;;;14.68;8.93;;;10.20;99.90;;;;;;5021479;28;20045;-64
2022/03/28 11:46:14;;;;;;;15.18;9.68;;;10.50;99.90;;;;;;5016619;28;20153;-65
2022/03/28 11:49:11;;;;;;;13.13;8.68;;;10.80;99.90;;;;;;5021538;28;20045;-65
2022/03/28 11:51:40;;;;;;;11.43;8.18;;;11.10;99.90;;;;;;4989200;28;20053;-65
2022/03/28 11:54:08;;;;;;;11.65;7.60;;;11.40;99.90;;;;;;4998344;28;20060;-65
2022/03/28 11:58:14;;;;;;;14.73;9.15;;;11.70;99.90;;;;;;4997350;28;20113;-65
2022/03/28 11:59:23;;;;;;;12.43;7.93;;;12.00;99.90;;;;;;4978947;28;20054;-65
2022/03/28 12:01:56;;;;;;;12.55;7.95;;;12.20;99.90;;;;;;4996288;28;20492;-66
2022/03/28 12:04:21;;;;;;;13.40;8.98;;;12.40;99.90;;;;;;4996421;28;20648;-65
2022/03/28 12:06:47;;;;;;;12.15;8.48;;;12.40;99.90;;;;;;4996788;28;20088;-65
2022/03/28 12:09:16;;;;;;;13.30;9.02;;;12.20;99.90;;;;;;4995550;28;20825;-65
2022/03/28 12:11:50;;;;;;;12.48;9.20;;;12.30;99.90;;;;;;4996561;28;20066;-65
2022/03/28 12:14:17;;;;;;;12.60;8.57;;;12.40;99.90;;;;;;4979091;28;20049;-66
2022/03/28 12:16:50;;;;;;;11.52;8.75;;;12.50;99.90;;;;;;4995493;28;21048;-66
2022/03/28 12:19:23;;;;;;;;;;;12.70;99.90;;;;;;4996374;28;20046;-66
2022/03/28 12:21:50;;;;;;;15.27;9.63;;;12.70;99.90;;;;;;5014460;28;20031;-65
2022/03/28 12:24:16;;;;;;;14.88;9.15;;;12.20;99.90;;;;;;4997818;28;20055;-65
2022/03/28 12:26:46;;;;;;;16.52;9.55;;;12.00;99.90;;;;;;5016082;28;20056;-65
2022/03/28 12:29:12;;;;;;;12.65;8.95;;;12.10;99.90;;;;;;5015318;28;20113;-65
2022/03/28 12:31:45;;;;;;;12.30;9.43;;;12.10;99.90;;;;;;4998406;28;20045;-66
2022/03/28 12:34:12;;;;;;;12.82;8.80;;;11.90;99.90;;;;;;5016036;28;20512;-65
2022/03/28 12:36:38;;;;;;;15.40;9.50;;;11.90;99.90;;;;;;5015259;28;20683;-66
2022/03/28 12:39:07;;;;;;;12.88;8.88;;;11.90;99.90;;;;;;5015952;28;20813;-65
2022/03/28 12:41:44;;;;;;;14.00;10.45;;;11.80;99.90;;;;;;5016644;28;20052;-65
2022/03/28 12:44:14;;;;;;;17.40;11.68;;;11.70;99.90;;;;;;5026256;28;20045;-65
2022/03/28 12:46:40;;;;;;;13.18;9.57;;;11.40;99.90;;;;;;5035548;28;20173;-65
2022/03/28 12:49:13;;;;;;;19.77;11.07;;;11.40;99.90;;;;;;4997153;28;20080;-66